Time;durP1;ratioP1;P1;durP2;ratioP2;P2;SDS_P1;SDS_P2;PMS_P1;PMS_P2;Temp;Humidity;BMP_temperature;BMP_pressure;BME280_temperature;BME280_humidity;BME280_pressure;Samples;Min_cycle;Max_cycle;Signal;HPM_P1;HPM_P2
2022/12/03 00:00:47;;;;;;;22.83;11.52;;;;;;;;;;6180163;23;20017;-53
2022/12/03 00:03:21;;;;;;;20.17;11.05;;;;;;;;;;6180382;23;20021;-56
2022/12/03 00:05:48;;;;;;;21.73;11.95;;;;;;;;;;6179038;23;20025;-52
2022/12/03 00:08:16;;;;;;;20.40;11.75;;;;;;;;;;6179428;23;20020;-53
2022/12/03 00:10:50;;;;;;;22.67;12.25;;;;;;;;;;6179889;23;20025;-52
2022/12/03 00:13:17;;;;;;;22.45;13.13;;;;;;;;;;6179116;23;20024;-54
2022/12/03 00:15:44;;;;;;;23.30;11.80;;;;;;;;;;6179320;23;20044;-55
2022/12/03 00:18:18;;;;;;;22.75;12.20;;;;;;;;;;6176676;23;20791;-54
2022/12/03 00:20:45;;;;;;;20.70;11.88;;;;;;;;;;6180164;23;20047;-45
2022/12/03 00:23:12;;;;;;;21.00;11.85;;;;;;;;;;6178399;23;20095;-54
2022/12/03 00:25:46;;;;;;;20.92;12.23;;;;;;;;;;6177657;23;20031;-53
2022/12/03 00:28:13;;;;;;;27.52;13.77;;;;;;;;;;6179109;23;20027;-56
2022/12/03 00:30:40;;;;;;;27.80;12.43;;;;;;;;;;6178766;23;20682;-54
2022/12/03 00:33:14;;;;;;;22.20;12.23;;;;;;;;;;6178101;23;20091;-56
2022/12/03 00:35:41;;;;;;;21.83;13.02;;;;;;;;;;6179847;23;20469;-55
2022/12/03 00:38:15;;;;;;;25.80;13.27;;;;;;;;;;6178403;23;20031;-60
2022/12/03 00:40:42;;;;;;;23.13;12.05;;;;;;;;;;6178875;23;20096;-63
2022/12/03 00:43:09;;;;;;;24.88;12.27;;;;;;;;;;6178700;23;20017;-54
2022/12/03 00:45:43;;;;;;;22.00;12.20;;;;;;;;;;6179426;23;20025;-58
2022/12/03 00:48:10;;;;;;;22.45;11.75;;;;;;;;;;6178071;23;20025;-55
2022/12/03 00:50:37;;;;;;;21.60;12.00;;;;;;;;;;6178347;23;20025;-57
2022/12/03 00:53:11;;;;;;;22.90;11.82;;;;;;;;;;6179104;23;20043;-54
2022/12/03 00:55:38;;;;;;;22.95;11.70;;;;;;;;;;6179712;23;20241;-57
2022/12/03 00:58:12;;;;;;;19.77;10.95;;;;;;;;;;6178911;23;20093;-65
2022/12/03 01:00:39;;;;;;;20.10;10.95;;;;;;;;;;6178802;23;20071;-59
2022/12/03 01:03:06;;;;;;;18.58;10.25;;;;;;;;;;6178601;23;20104;-59
2022/12/03 01:05:40;;;;;;;23.77;11.25;;;;;;;;;;6179983;23;20100;-60
2022/12/03 01:08:07;;;;;;;19.05;9.80;;;;;;;;;;6177668;23;20021;-59
2022/12/03 01:10:41;;;;;;;18.63;10.68;;;;;;;;;;6178958;23;20098;-60
2022/12/03 01:13:08;;;;;;;20.38;10.88;;;;;;;;;;6178423;23;20055;-59
2022/12/03 01:15:35;;;;;;;21.25;11.13;;;;;;;;;;6178889;23;20060;-60
2022/12/03 01:18:09;;;;;;;24.38;10.98;;;;;;;;;;6178538;23;20028;-63
2022/12/03 01:20:37;;;;;;;21.55;10.48;;;;;;;;;;6178819;23;20021;-60
2022/12/03 01:23:17;;;;;;;17.83;9.98;;;;;;;;;;6177867;23;20024;-61
2022/12/03 01:25:51;;;;;;;21.08;10.77;;;;;;;;;;6178624;23;20021;-60
2022/12/03 01:28:25;;;;;;;20.13;10.45;;;;;;;;;;6177406;23;20031;-60
2022/12/03 01:33:46;;;;;;;17.15;9.70;;;;;;;;;;6178349;23;20025;-60
2022/12/03 01:36:13;;;;;;;15.63;9.30;;;;;;;;;;6178202;23;20525;-59
2022/12/03 01:38:40;;;;;;;16.75;9.93;;;;;;;;;;6177901;23;20032;-60
2022/12/03 01:41:14;;;;;;;18.15;10.13;;;;;;;;;;6180077;23;20103;-60
2022/12/03 01:43:42;;;;;;;21.27;11.02;;;;;;;;;;6178145;23;20467;-60
2022/12/03 01:46:18;;;;;;;16.90;9.65;;;;;;;;;;6153929;23;20025;-60
2022/12/03 01:48:46;;;;;;;18.73;10.20;;;;;;;;;;6178427;23;20609;-60
2022/12/03 01:51:14;;;;;;;21.67;11.35;;;;;;;;;;6178796;23;20463;-60
2022/12/03 01:53:48;;;;;;;21.25;10.75;;;;;;;;;;6177745;23;20021;-60
2022/12/03 01:56:22;;;;;;;20.83;11.15;;;;;;;;;;6178779;23;20104;-64
2022/12/03 01:58:56;;;;;;;20.38;10.43;;;;;;;;;;6179496;23;20100;-53
2022/12/03 02:01:23;;;;;;;21.02;10.35;;;;;;;;;;6177737;23;20021;-55
2022/12/03 02:03:50;;;;;;;16.33;9.75;;;;;;;;;;6177507;23;20029;-53
2022/12/03 02:06:27;;;;;;;22.05;11.15;;;;;;;;;;6179146;23;20076;-55
2022/12/03 02:08:58;;;;;;;20.58;11.32;;;;;;;;;;6178446;23;20028;-53
2022/12/03 02:11:33;;;;;;;19.55;11.15;;;;;;;;;;6178446;23;20092;-54
2022/12/03 02:14:02;;;;;;;21.15;11.38;;;;;;;;;;6178418;23;20025;-55
2022/12/03 02:16:30;;;;;;;20.40;10.25;;;;;;;;;;6178368;23;20401;-59
2022/12/03 02:19:06;;;;;;;19.27;10.55;;;;;;;;;;6177407;23;20363;-65
2022/12/03 02:21:47;;;;;;;19.45;11.27;;;;;;;;;;6176275;23;20027;-65
2022/12/03 02:24:30;;;;;;;20.57;11.00;;;;;;;;;;6177604;23;20092;-65
2022/12/03 02:26:58;;;;;;;20.52;11.00;;;;;;;;;;6177519;23;20734;-65
2022/12/03 02:29:38;;;;;;;20.25;9.95;;;;;;;;;;6177769;23;20028;-65
2022/12/03 02:32:06;;;;;;;21.08;10.85;;;;;;;;;;6177707;23;20527;-62
2022/12/03 02:34:41;;;;;;;19.70;10.32;;;;;;;;;;6177094;23;20104;-53
2022/12/03 02:37:14;;;;;;;18.90;10.40;;;;;;;;;;6178788;23;20346;-60
2022/12/03 02:39:50;;;;;;;20.25;10.27;;;;;;;;;;6177720;23;20017;-59
2022/12/03 02:42:33;;;;;;;17.15;10.25;;;;;;;;;;6179000;23;20209;-60
2022/12/03 02:45:08;;;;;;;21.27;11.18;;;;;;;;;;6178507;23;20021;-60
2022/12/03 02:47:38;;;;;;;19.83;10.35;;;;;;;;;;6176689;23;20100;-59
2022/12/03 02:50:05;;;;;;;21.63;11.82;;;;;;;;;;6178155;23;20029;-60
2022/12/03 02:52:41;;;;;;;21.58;10.40;;;;;;;;;;6177006;23;20677;-46
2022/12/03 02:55:08;;;;;;;20.50;10.57;;;;;;;;;;6178824;23;20358;-59
2022/12/03 02:57:43;;;;;;;18.35;10.18;;;;;;;;;;6177050;23;20024;-59
2022/12/03 03:00:10;;;;;;;18.95;11.02;;;;;;;;;;6176481;23;20100;-59
2022/12/03 03:02:45;;;;;;;20.73;10.63;;;;;;;;;;6177467;23;20031;-60
2022/12/03 03:05:13;;;;;;;20.05;10.20;;;;;;;;;;6176682;23;20043;-59
2022/12/03 03:07:41;;;;;;;17.55;10.25;;;;;;;;;;6177457;23;20055;-59
2022/12/03 03:10:16;;;;;;;18.10;10.02;;;;;;;;;;6177865;23;20031;-54
2022/12/03 03:12:43;;;;;;;19.25;10.88;;;;;;;;;;6178726;23;20167;-60
2022/12/03 03:15:17;;;;;;;15.98;10.13;;;;;;;;;;6178092;23;20382;-53
2022/12/03 03:17:44;;;;;;;16.25;10.05;;;;;;;;;;6177216;23;20419;-53
2022/12/03 03:20:12;;;;;;;15.55;10.02;;;;;;;;;;6178286;23;20104;-52
2022/12/03 03:22:53;;;;;;;20.65;10.85;;;;;;;;;;6178171;23;20032;-52
2022/12/03 03:25:21;;;;;;;19.02;10.38;;;;;;;;;;6178692;23;20025;-53
2022/12/03 03:27:55;;;;;;;17.15;7.45;;;;;;;;;;6180296;23;20025;-53
2022/12/03 03:30:22;;;;;;;20.42;8.88;;;;;;;;;;6152475;23;20027;-53
2022/12/03 03:32:56;;;;;;;22.23;10.82;;;;;;;;;;6179991;23;20101;-47
2022/12/03 03:35:23;;;;;;;;;;;;;;;;;;6179688;23;20332;-47
2022/12/03 03:37:57;;;;;;;16.80;9.63;;;;;;;;;;6179049;23;19920;-46
2022/12/03 03:40:24;;;;;;;;;;;;;;;;;;6179695;23;20524;-48
2022/12/03 03:42:51;;;;;;;18.27;10.00;;;;;;;;;;6178873;23;19921;-45
2022/12/03 03:45:25;;;;;;;19.55;9.35;;;;;;;;;;6180215;23;20092;-44
2022/12/03 03:47:56;;;;;;;22.50;10.98;;;;;;;;;;6179944;23;20104;-46
2022/12/03 03:50:30;;;;;;;17.88;9.82;;;;;;;;;;6154333;23;20112;-51
2022/12/03 03:52:58;;;;;;;19.00;11.02;;;;;;;;;;6179216;23;20238;-47
2022/12/03 03:55:25;;;;;;;;;;;;;;;;;;6180165;23;20100;-48
2022/12/03 03:57:59;;;;;;;20.77;11.32;;;;;;;;;;6177965;23;19919;-44
2022/12/03 04:00:26;;;;;;;22.40;11.10;;;;;;;;;;6179584;23;20108;-47
2022/12/03 04:03:00;;;;;;;20.02;10.65;;;;;;;;;;6178991;23;20039;-44
2022/12/03 04:05:27;;;;;;;21.30;11.45;;;;;;;;;;6180607;23;20021;-44
2022/12/03 04:07:54;;;;;;;20.90;9.93;;;;;;;;;;6178573;23;20497;-49
2022/12/03 04:13:14;;;;;;;19.67;10.95;;;;;;;;;;6179424;23;20100;-60
2022/12/03 04:15:48;;;;;;;15.93;8.30;;;;;;;;;;6180960;23;20027;-59
2022/12/03 04:24:04;;;;;;;18.52;9.73;;;;;;;;;;6179286;23;20027;-60
2022/12/03 04:29:24;;;;;;;18.58;9.98;;;;;;;;;;6179173;23;20032;-64
2022/12/03 04:37:37;;;;;;;21.05;11.02;;;;;;;;;;6179478;23;20052;-48
2022/12/03 04:40:59;;;;;;;19.77;10.32;;;;;;;;;;6178533;23;20785;-53
2022/12/03 04:42:59;;;;;;;20.00;9.80;;;;;;;;;;6177808;23;20119;-52
2022/12/03 04:45:33;;;;;;;18.20;10.18;;;;;;;;;;6179709;23;20088;-45
2022/12/03 04:48:07;;;;;;;21.65;11.10;;;;;;;;;;6179848;23;20035;-55
2022/12/03 04:50:41;;;;;;;20.80;11.00;;;;;;;;;;6179202;23;20358;-52
2022/12/03 04:53:08;;;;;;;17.88;10.52;;;;;;;;;;6179084;23;20017;-51
2022/12/03 04:55:35;;;;;;;18.73;10.55;;;;;;;;;;6180491;23;20101;-51
2022/12/03 04:58:09;;;;;;;19.40;10.68;;;;;;;;;;6178822;23;20019;-55
2022/12/03 05:00:36;;;;;;;21.20;9.82;;;;;;;;;;6179746;23;20058;-55
2022/12/03 05:03:10;;;;;;;19.02;9.18;;;;;;;;;;6179759;23;20028;-53
2022/12/03 05:05:37;;;;;;;19.60;10.30;;;;;;;;;;6177602;23;20025;-54
2022/12/03 05:08:04;;;;;;;19.10;9.93;;;;;;;;;;6179535;23;20048;-45
2022/12/03 05:10:39;;;;;;;16.55;9.80;;;;;;;;;;6178140;23;20445;-63
2022/12/03 05:13:06;;;;;;;18.55;10.88;;;;;;;;;;6178355;23;20021;-61
2022/12/03 05:15:33;;;;;;;20.23;10.98;;;;;;;;;;6177236;23;20021;-63
2022/12/03 05:18:07;;;;;;;20.65;10.52;;;;;;;;;;6178149;23;20104;-62
2022/12/03 05:20:40;;;;;;;16.42;9.95;;;;;;;;;;6175240;23;20060;-63
2022/12/03 05:23:32;;;;;;;19.38;10.05;;;;;;;;;;6176555;23;20148;-63
2022/12/03 05:26:06;;;;;;;21.38;10.15;;;;;;;;;;6178918;23;20861;-50
2022/12/03 05:28:40;;;;;;;18.75;9.75;;;;;;;;;;6176917;23;20646;-64
2022/12/03 05:31:07;;;;;;;18.58;9.68;;;;;;;;;;6177773;23;20021;-63
2022/12/03 05:33:41;;;;;;;18.85;10.43;;;;;;;;;;6178700;23;20020;-63
2022/12/03 05:36:10;;;;;;;19.25;9.88;;;;;;;;;;6179556;23;20705;-63
2022/12/03 05:38:37;;;;;;;20.92;11.43;;;;;;;;;;6179418;23;20578;-63
2022/12/03 05:43:57;;;;;;;19.25;9.80;;;;;;;;;;6178882;23;20096;-50
2022/12/03 05:46:31;;;;;;;20.27;10.77;;;;;;;;;;6175196;23;20039;-59
2022/12/03 05:48:59;;;;;;;19.65;10.20;;;;;;;;;;6175855;23;20020;-60
2022/12/03 05:51:26;;;;;;;15.85;9.30;;;;;;;;;;6178621;23;20025;-59
2022/12/03 05:54:00;;;;;;;19.00;9.18;;;;;;;;;;6179221;23;20025;-60
2022/12/03 05:56:27;;;;;;;17.17;8.38;;;;;;;;;;6177731;23;20562;-59
2022/12/03 05:59:01;;;;;;;18.33;9.60;;;;;;;;;;6177781;23;20116;-59
2022/12/03 06:01:28;;;;;;;15.40;8.95;;;;;;;;;;6176948;23;20027;-59
2022/12/03 06:03:55;;;;;;;16.80;8.30;;;;;;;;;;6176268;23;20031;-51
2022/12/03 06:06:29;;;;;;;19.52;9.35;;;;;;;;;;6177486;23;20021;-59
2022/12/03 06:08:56;;;;;;;19.30;9.70;;;;;;;;;;6178553;23;20136;-59
2022/12/03 06:11:32;;;;;;;16.67;9.27;;;;;;;;;;6178348;23;20028;-60
2022/12/03 06:14:00;;;;;;;17.48;8.70;;;;;;;;;;6176900;23;20419;-59
2022/12/03 06:16:27;;;;;;;13.48;7.88;;;;;;;;;;6177179;23;20580;-60
2022/12/03 06:19:01;;;;;;;17.13;7.88;;;;;;;;;;6176621;23;20479;-59
2022/12/03 06:21:28;;;;;;;14.68;7.20;;;;;;;;;;6178728;23;20497;-53
2022/12/03 06:24:10;;;;;;;16.35;8.77;;;;;;;;;;6178574;23;20040;-52
2022/12/03 06:26:37;;;;;;;14.75;8.02;;;;;;;;;;6179436;23;20021;-52
2022/12/03 06:29:11;;;;;;;15.55;8.15;;;;;;;;;;6178259;23;20025;-50
2022/12/03 06:31:38;;;;;;;14.18;7.40;;;;;;;;;;6178078;23;20039;-54
2022/12/03 06:34:05;;;;;;;19.10;9.52;;;;;;;;;;6177324;23;20510;-51
2022/12/03 06:36:39;;;;;;;14.43;8.40;;;;;;;;;;6176446;23;20021;-51
2022/12/03 06:39:06;;;;;;;15.55;8.68;;;;;;;;;;6177135;23;20021;-52
2022/12/03 06:41:40;;;;;;;15.27;8.30;;;;;;;;;;6177438;23;20517;-61
2022/12/03 06:44:07;;;;;;;14.73;7.93;;;;;;;;;;6177218;23;20100;-55
2022/12/03 06:46:34;;;;;;;17.45;9.23;;;;;;;;;;6178358;23;20028;-54
2022/12/03 06:49:08;;;;;;;15.25;8.27;;;;;;;;;;6177817;23;20017;-56
2022/12/03 06:51:35;;;;;;;16.40;8.65;;;;;;;;;;6178548;23;20021;-55
2022/12/03 06:54:10;;;;;;;17.70;9.38;;;;;;;;;;6177305;23;20071;-56
2022/12/03 06:56:37;;;;;;;16.67;9.35;;;;;;;;;;6177529;23;20112;-55
2022/12/03 06:59:11;;;;;;;18.30;8.82;;;;;;;;;;6177118;23;20622;-64
2022/12/03 07:01:45;;;;;;;18.13;9.35;;;;;;;;;;6179050;23;20025;-62
2022/12/03 07:04:12;;;;;;;13.15;7.38;;;;;;;;;;6178443;23;20041;-53
2022/12/03 07:06:39;;;;;;;16.65;8.07;;;;;;;;;;6180144;23;20027;-51
2022/12/03 07:09:15;;;;;;;14.45;8.45;;;;;;;;;;6181572;23;20101;-51
2022/12/03 07:11:42;;;;;;;16.00;8.02;;;;;;;;;;6179729;23;20116;-52
2022/12/03 07:14:17;;;;;;;15.68;8.07;;;;;;;;;;6181486;23;20027;-54
2022/12/03 07:16:44;;;;;;;9.88;5.55;;;;;;;;;;6180732;23;20354;-49
2022/12/03 07:19:11;;;;;;;14.02;7.55;;;;;;;;;;6179140;23;20525;-63
2022/12/03 07:21:45;;;;;;;12.70;7.30;;;;;;;;;;6180614;23;20028;-45
2022/12/03 07:24:19;;;;;;;13.88;8.07;;;;;;;;;;6179912;23;20100;-45
2022/12/03 07:26:59;;;;;;;15.32;7.60;;;;;;;;;;6180077;23;20017;-45
2022/12/03 07:29:27;;;;;;;14.13;7.00;;;;;;;;;;6180996;23;20025;-45
2022/12/03 07:32:01;;;;;;;18.52;7.90;;;;;;;;;;6179522;23;20029;-45
2022/12/03 07:34:28;;;;;;;16.13;7.97;;;;;;;;;;6180700;23;20107;-44
2022/12/03 07:36:55;;;;;;;12.88;7.22;;;;;;;;;;6180609;23;20024;-49
2022/12/03 07:39:29;;;;;;;14.88;6.75;;;;;;;;;;6180454;23;20041;-49
2022/12/03 07:41:56;;;;;;;14.50;7.55;;;;;;;;;;6180046;23;20370;-50
2022/12/03 07:44:23;;;;;;;15.48;8.38;;;;;;;;;;6180292;23;20031;-51
2022/12/03 07:46:57;;;;;;;17.23;8.27;;;;;;;;;;6178494;23;20099;-53
2022/12/03 07:49:25;;;;;;;;;;;;;;;;;;6176820;23;20461;-53
2022/12/03 07:51:59;;;;;;;13.43;7.20;;;;;;;;;;6176186;23;20016;-49
2022/12/03 07:54:26;;;;;;;13.35;7.15;;;;;;;;;;6178848;23;20067;-52
2022/12/03 07:56:53;;;;;;;17.27;7.90;;;;;;;;;;6179849;23;20029;-60
2022/12/03 07:59:28;;;;;;;12.48;7.25;;;;;;;;;;6176180;23;20096;-59
2022/12/03 08:01:56;;;;;;;17.10;7.63;;;;;;;;;;6180934;23;20095;-59
2022/12/03 08:04:30;;;;;;;16.00;7.50;;;;;;;;;;6177987;23;20048;-60
2022/12/03 08:06:57;;;;;;;15.55;8.07;;;;;;;;;;6179977;23;20111;-59
2022/12/03 08:09:25;;;;;;;16.58;7.85;;;;;;;;;;6154626;23;20017;-60
2022/12/03 08:12:00;;;;;;;14.63;7.72;;;;;;;;;;6179728;23;20127;-61
2022/12/03 08:14:27;;;;;;;15.77;8.27;;;;;;;;;;6180572;23;20017;-61
2022/12/03 08:17:01;;;;;;;16.17;8.13;;;;;;;;;;6179453;23;20033;-54
2022/12/03 08:19:28;;;;;;;18.90;8.60;;;;;;;;;;6180383;23;20095;-61
2022/12/03 08:21:55;;;;;;;14.80;7.35;;;;;;;;;;6178657;23;20719;-61
2022/12/03 08:24:36;;;;;;;16.58;7.97;;;;;;;;;;6178490;23;20366;-61
2022/12/03 08:27:05;;;;;;;18.02;7.80;;;;;;;;;;6177690;23;20064;-60
2022/12/03 08:29:39;;;;;;;16.00;7.28;;;;;;;;;;6179282;23;20465;-61
2022/12/03 08:32:08;;;;;;;17.67;8.07;;;;;;;;;;6176763;23;20031;-60
2022/12/03 08:34:43;;;;;;;16.73;7.95;;;;;;;;;;6176232;23;20059;-60
2022/12/03 08:37:19;;;;;;;16.92;8.07;;;;;;;;;;6179662;23;20052;-60
2022/12/03 08:39:54;;;;;;;15.77;8.55;;;;;;;;;;6174699;23;20052;-60
2022/12/03 08:42:40;;;;;;;15.70;8.32;;;;;;;;;;6178687;23;20056;-60
2022/12/03 08:45:38;;;;;;;14.38;7.75;;;;;;;;;;6176749;23;20017;-60
2022/12/03 08:48:18;;;;;;;17.80;8.50;;;;;;;;;;6177654;23;20029;-61
2022/12/03 08:50:53;;;;;;;18.40;8.48;;;;;;;;;;6177419;23;20060;-60
2022/12/03 08:53:26;;;;;;;15.00;8.05;;;;;;;;;;6177185;23;20021;-46
2022/12/03 08:56:04;;;;;;;14.45;7.85;;;;;;;;;;6177847;23;20388;-60
2022/12/03 08:58:35;;;;;;;16.10;8.32;;;;;;;;;;6178555;23;20027;-61
2022/12/03 09:01:12;;;;;;;11.50;6.67;;;;;;;;;;6178109;23;20021;-61
2022/12/03 09:03:43;;;;;;;18.05;8.98;;;;;;;;;;6179292;23;20725;-61
2022/12/03 09:06:17;;;;;;;17.40;9.25;;;;;;;;;;6179006;23;20052;-61
2022/12/03 09:08:44;;;;;;;17.42;8.85;;;;;;;;;;6178560;23;20120;-61
2022/12/03 09:11:11;;;;;;;18.38;8.32;;;;;;;;;;6178412;23;20081;-61
2022/12/03 09:13:45;;;;;;;16.55;8.43;;;;;;;;;;6175175;23;20025;-54
2022/12/03 09:16:12;;;;;;;14.98;8.38;;;;;;;;;;6176990;23;20035;-63
2022/12/03 09:18:39;;;;;;;20.40;9.38;;;;;;;;;;6178040;23;20024;-64
2022/12/03 09:21:13;;;;;;;18.33;9.32;;;;;;;;;;6179081;23;20025;-64
2022/12/03 09:23:40;;;;;;;18.15;8.15;;;;;;;;;;6178343;23;20056;-64
2022/12/03 09:26:14;;;;;;;20.77;8.55;;;;;;;;;;6176132;23;20100;-63
2022/12/03 09:28:41;;;;;;;17.10;8.73;;;;;;;;;;6177433;23;20017;-63
2022/12/03 09:31:08;;;;;;;17.50;8.77;;;;;;;;;;6177450;23;20025;-60
2022/12/03 09:33:42;;;;;;;19.05;8.20;;;;;;;;;;6179181;23;20056;-55
2022/12/03 09:36:09;;;;;;;;;;;;;;;;;;6175991;23;20099;-63
2022/12/03 09:38:43;;;;;;;17.70;8.02;;;;;;;;;;6176902;23;20515;-63
2022/12/03 09:41:14;;;;;;;17.15;8.52;;;;;;;;;;6178371;23;20021;-63
2022/12/03 09:43:41;;;;;;;20.65;9.68;;;;;;;;;;6175167;23;20303;-63
2022/12/03 09:46:31;;;;;;;18.77;8.68;;;;;;;;;;6177191;23;20474;-64
2022/12/03 09:48:58;;;;;;;14.57;8.27;;;;;;;;;;6177157;23;20091;-63
2022/12/03 09:51:40;;;;;;;17.50;8.90;;;;;;;;;;6178261;23;20054;-63
2022/12/03 09:54:07;;;;;;;17.77;8.25;;;;;;;;;;6178800;23;20021;-52
2022/12/03 09:56:41;;;;;;;16.65;8.00;;;;;;;;;;6178579;23;20096;-51
2022/12/03 09:59:08;;;;;;;;;;;;;;;;;;6178101;23;20021;-54
2022/12/03 10:01:35;;;;;;;17.77;8.10;;;;;;;;;;6177819;23;20031;-50
2022/12/03 10:04:09;;;;;;;17.30;8.68;;;;;;;;;;6177280;23;20463;-51
2022/12/03 10:06:37;;;;;;;16.27;8.85;;;;;;;;;;6177463;23;20017;-53
2022/12/03 10:09:13;;;;;;;20.75;9.65;;;;;;;;;;6177559;23;20064;-51
2022/12/03 10:11:40;;;;;;;20.65;9.98;;;;;;;;;;6176715;23;20099;-45
2022/12/03 10:14:11;;;;;;;18.13;8.68;;;;;;;;;;6178574;23;20053;-45
2022/12/03 10:16:45;;;;;;;18.38;9.43;;;;;;;;;;6177532;23;20025;-45
2022/12/03 10:19:17;;;;;;;18.55;8.52;;;;;;;;;;6177641;23;20028;-45
2022/12/03 10:22:35;;;;;;;17.38;8.18;;;;;;;;;;6132162;23;20025;-47
2022/12/03 10:25:17;;;;;;;16.15;8.50;;;;;;;;;;6177813;23;20346;-46
2022/12/03 10:27:55;;;;;;;17.02;8.60;;;;;;;;;;6178099;23;20025;-47
2022/12/03 10:30:25;;;;;;;18.83;8.82;;;;;;;;;;6176472;23;20404;-63
2022/12/03 10:33:10;;;;;;;17.73;8.27;;;;;;;;;;6177122;23;20099;-60
2022/12/03 10:35:44;;;;;;;20.88;9.63;;;;;;;;;;6174281;23;20021;-57
2022/12/03 10:38:23;;;;;;;17.73;8.00;;;;;;;;;;6176913;23;20017;-60
2022/12/03 10:40:50;;;;;;;19.85;8.88;;;;;;;;;;6176769;23;20029;-59
2022/12/03 10:43:17;;;;;;;17.02;8.43;;;;;;;;;;6178754;23;20021;-59
2022/12/03 10:46:09;;;;;;;15.90;8.05;;;;;;;;;;6171137;23;20485;-60
2022/12/03 10:48:36;;;;;;;17.20;8.20;;;;;;;;;;6175478;23;20021;-61
2022/12/03 10:51:20;;;;;;;18.58;8.98;;;;;;;;;;6175487;23;20124;-46
2022/12/03 10:53:48;;;;;;;17.88;8.70;;;;;;;;;;6173608;23;20268;-48
2022/12/03 10:56:26;;;;;;;15.60;7.72;;;;;;;;;;6176668;23;20104;-49
2022/12/03 10:58:54;;;;;;;16.73;8.70;;;;;;;;;;6176311;23;20037;-47
2022/12/03 11:01:22;;;;;;;17.40;9.10;;;;;;;;;;6177236;23;20064;-49
2022/12/03 11:04:03;;;;;;;16.80;8.13;;;;;;;;;;6178286;23;20032;-47
2022/12/03 11:06:33;;;;;;;19.55;8.82;;;;;;;;;;6178113;23;20025;-55
2022/12/03 11:09:12;;;;;;;18.23;8.40;;;;;;;;;;6178455;23;20092;-63
2022/12/03 11:11:39;;;;;;;18.45;8.38;;;;;;;;;;6176563;23;20027;-45
2022/12/03 11:14:07;;;;;;;16.90;8.60;;;;;;;;;;6177659;23;20025;-45
2022/12/03 11:16:51;;;;;;;14.85;8.18;;;;;;;;;;6176086;23;20025;-46
2022/12/03 11:19:38;;;;;;;20.00;8.77;;;;;;;;;;6176689;23;20340;-47
2022/12/03 11:22:12;;;;;;;15.65;8.35;;;;;;;;;;6175055;23;20104;-47
2022/12/03 11:24:46;;;;;;;17.45;7.93;;;;;;;;;;6174504;23;20021;-45
2022/12/03 11:27:20;;;;;;;14.70;7.68;;;;;;;;;;6175590;23;20398;-64
2022/12/03 11:29:57;;;;;;;19.10;9.15;;;;;;;;;;6175273;23;20055;-61
2022/12/03 11:32:37;;;;;;;16.77;8.18;;;;;;;;;;6174492;23;20055;-61
2022/12/03 11:35:27;;;;;;;14.48;8.15;;;;;;;;;;6178156;23;20100;-61
2022/12/03 11:38:19;;;;;;;15.57;7.95;;;;;;;;;;6167373;23;20028;-61
2022/12/03 11:41:06;;;;;;;16.40;8.30;;;;;;;;;;6177897;23;20059;-61
2022/12/03 11:43:52;;;;;;;18.27;8.20;;;;;;;;;;6175340;23;20021;-61
2022/12/03 11:46:24;;;;;;;19.60;9.23;;;;;;;;;;6174233;23;20078;-52
2022/12/03 11:48:59;;;;;;;17.17;8.45;;;;;;;;;;6173402;23;20107;-63
2022/12/03 11:51:27;;;;;;;14.32;8.27;;;;;;;;;;6175329;23;20560;-64
2022/12/03 11:54:01;;;;;;;17.45;8.45;;;;;;;;;;6179783;23;20020;-63
2022/12/03 11:56:29;;;;;;;19.95;9.07;;;;;;;;;;6176959;23;20029;-63
2022/12/03 11:59:01;;;;;;;17.92;8.60;;;;;;;;;;6179300;23;20096;-64
2022/12/03 12:01:36;;;;;;;15.50;8.73;;;;;;;;;;6174905;23;20021;-64
2022/12/03 12:04:05;;;;;;;16.52;7.93;;;;;;;;;;6177708;23;20475;-64
2022/12/03 12:06:40;;;;;;;15.65;7.88;;;;;;;;;;6177560;23;20025;-51
2022/12/03 12:09:38;;;;;;;14.02;8.40;;;;;;;;;;6178489;23;20020;-60
2022/12/03 12:12:24;;;;;;;14.02;7.30;;;;;;;;;;6179475;23;20776;-60
2022/12/03 12:14:58;;;;;;;13.13;7.28;;;;;;;;;;6179921;23;20028;-60
2022/12/03 12:17:25;;;;;;;;;;;;;;;;;;6179031;23;20095;-60
2022/12/03 12:20:17;;;;;;;13.15;6.72;;;;;;;;;;6177120;23;19916;-60
2022/12/03 12:22:45;;;;;;;17.13;7.32;;;;;;;;;;6173260;23;20383;-61
2022/12/03 12:25:41;;;;;;;17.98;8.02;;;;;;;;;;6177978;23;20132;-63
2022/12/03 12:28:08;;;;;;;18.42;8.30;;;;;;;;;;6178165;23;20025;-54
2022/12/03 12:30:42;;;;;;;13.55;7.75;;;;;;;;;;6179618;23;20092;-52
2022/12/03 12:33:23;;;;;;;16.70;8.27;;;;;;;;;;6176672;23;20103;-55
2022/12/03 12:36:10;;;;;;;16.27;7.45;;;;;;;;;;6179296;23;20032;-53
2022/12/03 12:38:44;;;;;;;18.13;8.30;;;;;;;;;;6179468;23;20017;-50
2022/12/03 12:41:18;;;;;;;14.45;8.32;;;;;;;;;;6178000;23;20568;-51
2022/12/03 12:43:45;;;;;;;15.88;8.27;;;;;;;;;;6178830;23;20025;-63
2022/12/03 12:46:21;;;;;;;16.17;8.20;;;;;;;;;;6177543;23;20024;-61
2022/12/03 12:49:12;;;;;;;16.52;8.18;;;;;;;;;;6177749;23;20043;-61
2022/12/03 12:51:46;;;;;;;14.02;8.05;;;;;;;;;;6178135;23;20022;-61
2022/12/03 12:54:14;;;;;;;15.70;8.23;;;;;;;;;;6177817;23;20031;-61
2022/12/03 12:56:49;;;;;;;16.08;7.57;;;;;;;;;;6178332;23;20017;-60
2022/12/03 12:59:18;;;;;;;19.67;7.95;;;;;;;;;;6179340;23;20027;-60
2022/12/03 13:01:52;;;;;;;13.75;7.72;;;;;;;;;;6178170;23;20382;-60
2022/12/03 13:04:20;;;;;;;12.18;6.05;;;;;;;;;;6180022;23;20036;-51
2022/12/03 13:06:54;;;;;;;13.05;7.18;;;;;;;;;;6177755;23;20025;-55
2022/12/03 13:09:29;;;;;;;12.80;6.72;;;;;;;;;;6179489;23;20479;-53
2022/12/03 13:12:03;;;;;;;8.50;4.38;;;;;;;;;;6177839;23;20031;-50
2022/12/03 13:14:31;;;;;;;12.15;7.05;;;;;;;;;;6178168;23;20100;-53
2022/12/03 13:17:13;;;;;;;14.98;6.68;;;;;;;;;;6180012;23;20028;-54
2022/12/03 13:19:41;;;;;;;13.02;6.97;;;;;;;;;;6178687;23;20021;-59
2022/12/03 13:22:27;;;;;;;11.70;6.70;;;;;;;;;;6179789;23;20096;-48
2022/12/03 13:25:03;;;;;;;13.10;6.82;;;;;;;;;;6179152;23;20112;-57
2022/12/03 13:27:44;;;;;;;13.25;6.80;;;;;;;;;;6176789;23;20025;-54
2022/12/03 13:30:14;;;;;;;12.55;6.97;;;;;;;;;;6178244;23;20021;-55
2022/12/03 13:32:48;;;;;;;15.25;7.15;;;;;;;;;;6179774;23;20112;-54
2022/12/03 13:35:30;;;;;;;13.18;7.32;;;;;;;;;;6177455;23;20052;-55
2022/12/03 13:38:11;;;;;;;16.73;7.70;;;;;;;;;;6154755;23;20031;-54
2022/12/03 13:40:40;;;;;;;18.75;8.65;;;;;;;;;;6178946;23;20097;-46
2022/12/03 13:43:15;;;;;;;15.60;8.90;;;;;;;;;;6179406;23;20059;-52
2022/12/03 13:45:43;;;;;;;17.60;8.95;;;;;;;;;;6178943;23;20063;-51
2022/12/03 13:48:26;;;;;;;15.18;8.02;;;;;;;;;;6178360;23;20048;-56
2022/12/03 13:50:53;;;;;;;15.65;8.13;;;;;;;;;;6178326;23;20575;-53
2022/12/03 13:53:29;;;;;;;16.88;9.48;;;;;;;;;;6178920;23;20032;-52
2022/12/03 13:56:00;;;;;;;15.77;8.35;;;;;;;;;;6176041;23;20104;-57
2022/12/03 13:58:35;;;;;;;17.52;9.85;;;;;;;;;;6176675;23;20029;-53
2022/12/03 14:01:02;;;;;;;17.92;9.32;;;;;;;;;;6177532;23;20132;-62
2022/12/03 14:03:29;;;;;;;18.10;9.23;;;;;;;;;;6179498;23;20021;-55
2022/12/03 14:06:03;;;;;;;17.70;9.80;;;;;;;;;;6177322;23;20088;-53
2022/12/03 14:08:30;;;;;;;17.90;8.63;;;;;;;;;;6179031;23;20021;-51
2022/12/03 14:11:04;;;;;;;20.15;9.18;;;;;;;;;;6178464;23;20143;-55
2022/12/03 14:13:31;;;;;;;;;;;;;;;;;;6177840;23;20103;-52
2022/12/03 14:15:58;;;;;;;17.40;8.75;;;;;;;;;;6176458;23;19916;-53
2022/12/03 14:18:32;;;;;;;18.25;9.15;;;;;;;;;;6176160;23;20025;-64
2022/12/03 14:20:59;;;;;;;17.10;9.48;;;;;;;;;;6173610;23;20115;-61
2022/12/03 14:23:47;;;;;;;19.98;10.45;;;;;;;;;;6175635;23;20564;-61
2022/12/03 14:26:21;;;;;;;15.48;8.80;;;;;;;;;;6179243;23;20057;-61
2022/12/03 14:28:55;;;;;;;20.92;8.93;;;;;;;;;;6178609;23;20020;-61
2022/12/03 14:31:22;;;;;;;;;;;;;;;;;;6179615;23;20017;-61
2022/12/03 14:33:49;;;;;;;17.80;8.85;;;;;;;;;;6178488;23;19947;-61
2022/12/03 14:36:23;;;;;;;20.42;9.27;;;;;;;;;;6177395;23;20023;-60
2022/12/03 14:38:50;;;;;;;16.05;8.95;;;;;;;;;;6175586;23;20027;-61
2022/12/03 14:42:25;;;;;;;19.05;8.93;;;;;;;;;;6175865;23;20131;-52
2022/12/03 14:44:22;;;;;;;18.55;9.48;;;;;;;;;;6144537;23;20088;-53
2022/12/03 14:46:56;;;;;;;18.33;8.35;;;;;;;;;;6175200;23;20533;-53
2022/12/03 14:49:23;;;;;;;;;;;;;;;;;;6176430;23;20112;-54
2022/12/03 14:51:50;;;;;;;17.92;9.05;;;;;;;;;;6174800;23;20781;-53
2022/12/03 14:54:24;;;;;;;17.25;8.70;;;;;;;;;;6178183;23;20069;-53
2022/12/03 14:56:52;;;;;;;16.98;9.02;;;;;;;;;;6178315;23;20104;-46
2022/12/03 14:59:25;;;;;;;20.73;8.85;;;;;;;;;;6180230;23;20108;-51
2022/12/03 15:01:54;;;;;;;14.65;7.97;;;;;;;;;;6177527;23;20025;-51
2022/12/03 15:04:28;;;;;;;16.67;8.82;;;;;;;;;;6176476;23;20033;-53
2022/12/03 15:06:55;;;;;;;18.08;9.13;;;;;;;;;;6177169;23;20017;-52
2022/12/03 15:09:29;;;;;;;17.75;8.13;;;;;;;;;;6178630;23;20099;-55
2022/12/03 15:11:56;;;;;;;16.85;8.43;;;;;;;;;;6176778;23;20060;-52
2022/12/03 15:14:23;;;;;;;16.85;8.20;;;;;;;;;;6179288;23;20025;-46
2022/12/03 15:16:57;;;;;;;14.02;8.02;;;;;;;;;;6178291;23;20025;-51
2022/12/03 15:19:24;;;;;;;;;;;;;;;;;;6177259;23;20033;-49
2022/12/03 15:21:58;;;;;;;14.18;6.70;;;;;;;;;;6178470;23;19920;-53
2022/12/03 15:24:25;;;;;;;20.15;7.43;;;;;;;;;;6179924;23;20056;-53